KMOR/MOR METAR and TAF weather

Enter ICAO airport designator
Station Type Date Time Source
KMOR METAR 2019/09/20 20:35 UTC NOAA

KMOR 202035Z AUTO VRB04KT 10SM CLR 28/15 A3022 RMK A01


Station Type Date Time Source
KMOR Decoded METAR 2019/09/20 20:35 UTC NOAA

Station name not available
Sep 20, 2019 - 04:35 PM EDT / 2019.09.20 2035 UTC
Wind: Variable at 5 MPH (4 KT):0
Visibility: 10 mile(s):0
Sky conditions: clear
Temperature: 82 F (28 C)
Dew Point: 59 F (15 C)
Relative Humidity: 45%
Pressure (altimeter): 30.22 in. Hg (1023 hPa)
ob: KMOR 202035Z AUTO VRB04KT 10SM CLR 28/15 A3022 RMK A01
cycle: 20

Station Type Date Time Source
KMOR TAF UTC NOAA

Error!

Example: see airport list